sensor_id;sensor_type;location;lat;lon;timestamp;temperature;humidity
13211;DHT22;6670;51.53087800;7.23266500;2022-07-23T00:00:20;19.00;99.90
13211;DHT22;6670;51.53087800;7.23266500;2022-07-23T00:02:48;18.90;99.90
13211;DHT22;6670;51.53087800;7.23266500;2022-07-23T00:05:15;18.70;99.90
13211;DHT22;6670;51.53087800;7.23266500;2022-07-23T00:07:43;18.60;99.90
13211;DHT22;6670;51.53087800;7.23266500;2022-07-23T00:10:10;18.50;99.90
13211;DHT22;6670;51.53087800;7.23266500;2022-07-23T00:12:38;18.60;99.90
13211;DHT22;6670;51.53087800;7.23266500;2022-07-23T00:15:09;18.70;99.90
13211;DHT22;6670;51.53087800;7.23266500;2022-07-23T00:17:38;18.70;99.90
13211;DHT22;6670;51.53087800;7.23266500;2022-07-23T00:20:07;18.60;99.90
13211;DHT22;6670;51.53087800;7.23266500;2022-07-23T00:22:35;18.30;99.90
13211;DHT22;6670;51.53087800;7.23266500;2022-07-23T00:25:03;18.30;99.90
13211;DHT22;6670;51.53087800;7.23266500;2022-07-23T00:27:30;18.30;99.90
13211;DHT22;6670;51.53087800;7.23266500;2022-07-23T00:29:58;18.00;99.90
13211;DHT22;6670;51.53087800;7.23266500;2022-07-23T00:32:25;17.90;99.90
13211;DHT22;6670;51.53087800;7.23266500;2022-07-23T00:34:54;17.70;99.90
13211;DHT22;6670;51.53087800;7.23266500;2022-07-23T00:37:21;17.90;99.90
13211;DHT22;6670;51.53087800;7.23266500;2022-07-23T00:39:49;18.00;99.90
13211;DHT22;6670;51.53087800;7.23266500;2022-07-23T00:42:16;18.10;99.90
13211;DHT22;6670;51.53087800;7.23266500;2022-07-23T00:44:44;18.10;99.90
13211;DHT22;6670;51.53087800;7.23266500;2022-07-23T00:47:13;18.00;99.90
13211;DHT22;6670;51.53087800;7.23266500;2022-07-23T00:49:40;18.10;99.90
13211;DHT22;6670;51.53087800;7.23266500;2022-07-23T00:52:09;18.10;99.90
13211;DHT22;6670;51.53087800;7.23266500;2022-07-23T00:54:37;18.20;99.90
13211;DHT22;6670;51.53087800;7.23266500;2022-07-23T00:57:04;18.20;99.90
13211;DHT22;6670;51.53087800;7.23266500;2022-07-23T00:59:32;18.00;99.90
13211;DHT22;6670;51.53087800;7.23266500;2022-07-23T01:01:59;18.10;99.90
13211;DHT22;6670;51.53087800;7.23266500;2022-07-23T01:04:26;18.20;99.90
13211;DHT22;6670;51.53087800;7.23266500;2022-07-23T01:06:54;18.20;99.90
13211;DHT22;6670;51.53087800;7.23266500;2022-07-23T01:09:23;18.20;99.90
13211;DHT22;6670;51.53087800;7.23266500;2022-07-23T01:11:51;18.10;99.90
13211;DHT22;6670;51.53087800;7.23266500;2022-07-23T01:14:21;18.00;99.90
13211;DHT22;6670;51.53087800;7.23266500;2022-07-23T01:16:49;17.90;99.90
13211;DHT22;6670;51.53087800;7.23266500;2022-07-23T01:19:17;17.90;99.90
13211;DHT22;6670;51.53087800;7.23266500;2022-07-23T01:21:48;17.90;99.90
13211;DHT22;6670;51.53087800;7.23266500;2022-07-23T01:24:18;18.10;99.90
13211;DHT22;6670;51.53087800;7.23266500;2022-07-23T01:26:54;18.10;99.90
13211;DHT22;6670;51.53087800;7.23266500;2022-07-23T01:29:21;18.10;99.90
13211;DHT22;6670;51.53087800;7.23266500;2022-07-23T01:31:49;18.20;99.90
13211;DHT22;6670;51.53087800;7.23266500;2022-07-23T01:34:17;18.10;99.90
13211;DHT22;6670;51.53087800;7.23266500;2022-07-23T01:36:44;17.90;99.90
13211;DHT22;6670;51.53087800;7.23266500;2022-07-23T01:39:14;17.90;99.90
13211;DHT22;6670;51.53087800;7.23266500;2022-07-23T01:41:43;17.90;99.90
13211;DHT22;6670;51.53087800;7.23266500;2022-07-23T01:44:10;18.10;99.90
13211;DHT22;6670;51.53087800;7.23266500;2022-07-23T01:46:40;18.20;99.90
13211;DHT22;6670;51.53087800;7.23266500;2022-07-23T01:49:08;18.10;99.90
13211;DHT22;6670;51.53087800;7.23266500;2022-07-23T01:51:38;18.10;99.90
13211;DHT22;6670;51.53087800;7.23266500;2022-07-23T01:54:26;18.00;99.90
13211;DHT22;6670;51.53087800;7.23266500;2022-07-23T01:56:56;18.10;99.90
13211;DHT22;6670;51.53087800;7.23266500;2022-07-23T01:59:23;18.20;99.90
13211;DHT22;6670;51.53087800;7.23266500;2022-07-23T02:01:51;18.20;99.90
13211;DHT22;6670;51.53087800;7.23266500;2022-07-23T02:04:20;18.30;99.90
13211;DHT22;6670;51.53087800;7.23266500;2022-07-23T02:06:48;18.30;99.90
13211;DHT22;6670;51.53087800;7.23266500;2022-07-23T02:09:16;18.50;99.90
13211;DHT22;6670;51.53087800;7.23266500;2022-07-23T02:11:46;18.40;99.90
13211;DHT22;6670;51.53087800;7.23266500;2022-07-23T02:14:15;18.30;99.90
13211;DHT22;6670;51.53087800;7.23266500;2022-07-23T02:16:43;18.40;99.90
13211;DHT22;6670;51.53087800;7.23266500;2022-07-23T02:19:10;18.30;99.90
13211;DHT22;6670;51.53087800;7.23266500;2022-07-23T02:21:38;18.10;99.90
13211;DHT22;6670;51.53087800;7.23266500;2022-07-23T02:24:06;18.20;99.90
13211;DHT22;6670;51.53087800;7.23266500;2022-07-23T02:26:33;18.30;99.90
13211;DHT22;6670;51.53087800;7.23266500;2022-07-23T02:29:04;18.40;99.90
13211;DHT22;6670;51.53087800;7.23266500;2022-07-23T02:31:34;18.40;99.90
13211;DHT22;6670;51.53087800;7.23266500;2022-07-23T02:34:01;18.40;99.90
13211;DHT22;6670;51.53087800;7.23266500;2022-07-23T02:36:30;18.30;99.90
13211;DHT22;6670;51.53087800;7.23266500;2022-07-23T02:38:58;18.30;99.90
13211;DHT22;6670;51.53087800;7.23266500;2022-07-23T02:41:29;18.20;99.90
13211;DHT22;6670;51.53087800;7.23266500;2022-07-23T02:43:56;18.30;99.90
13211;DHT22;6670;51.53087800;7.23266500;2022-07-23T02:46:24;18.30;99.90
13211;DHT22;6670;51.53087800;7.23266500;2022-07-23T02:48:53;18.40;99.90
13211;DHT22;6670;51.53087800;7.23266500;2022-07-23T02:51:20;18.40;99.90
13211;DHT22;6670;51.53087800;7.23266500;2022-07-23T02:53:54;18.50;99.90
13211;DHT22;6670;51.53087800;7.23266500;2022-07-23T02:56:22;18.50;99.90
13211;DHT22;6670;51.53087800;7.23266500;2022-07-23T02:58:49;18.40;99.90
13211;DHT22;6670;51.53087800;7.23266500;2022-07-23T03:01:18;18.30;99.90
13211;DHT22;6670;51.53087800;7.23266500;2022-07-23T03:03:46;18.20;99.90
13211;DHT22;6670;51.53087800;7.23266500;2022-07-23T03:06:15;18.20;99.90
13211;DHT22;6670;51.53087800;7.23266500;2022-07-23T03:08:42;18.20;99.90
13211;DHT22;6670;51.53087800;7.23266500;2022-07-23T03:11:10;18.00;99.90
13211;DHT22;6670;51.53087800;7.23266500;2022-07-23T03:13:38;17.90;99.90
13211;DHT22;6670;51.53087800;7.23266500;2022-07-23T03:16:06;17.80;99.90
13211;DHT22;6670;51.53087800;7.23266500;2022-07-23T03:18:36;17.80;99.90
13211;DHT22;6670;51.53087800;7.23266500;2022-07-23T03:21:04;17.80;99.90
13211;DHT22;6670;51.53087800;7.23266500;2022-07-23T03:23:34;17.90;99.90
13211;DHT22;6670;51.53087800;7.23266500;2022-07-23T03:26:02;18.00;99.90
13211;DHT22;6670;51.53087800;7.23266500;2022-07-23T03:28:29;18.00;99.90
13211;DHT22;6670;51.53087800;7.23266500;2022-07-23T03:30:57;18.00;99.90
13211;DHT22;6670;51.53087800;7.23266500;2022-07-23T03:33:24;18.00;99.90
13211;DHT22;6670;51.53087800;7.23266500;2022-07-23T03:35:53;17.80;99.90
13211;DHT22;6670;51.53087800;7.23266500;2022-07-23T03:38:25;17.70;99.90
13211;DHT22;6670;51.53087800;7.23266500;2022-07-23T03:40:54;17.70;99.90
13211;DHT22;6670;51.53087800;7.23266500;2022-07-23T03:43:22;17.80;99.90
13211;DHT22;6670;51.53087800;7.23266500;2022-07-23T03:45:52;17.80;99.90
13211;DHT22;6670;51.53087800;7.23266500;2022-07-23T03:48:19;17.90;99.90
13211;DHT22;6670;51.53087800;7.23266500;2022-07-23T03:50:46;18.00;99.90
13211;DHT22;6670;51.53087800;7.23266500;2022-07-23T03:53:14;18.30;99.90
13211;DHT22;6670;51.53087800;7.23266500;2022-07-23T03:55:41;18.10;99.90
13211;DHT22;6670;51.53087800;7.23266500;2022-07-23T03:58:10;18.20;99.90
13211;DHT22;6670;51.53087800;7.23266500;2022-07-23T04:00:39;18.30;99.90
13211;DHT22;6670;51.53087800;7.23266500;2022-07-23T04:03:06;18.10;99.90
13211;DHT22;6670;51.53087800;7.23266500;2022-07-23T04:05:35;18.20;99.90
13211;DHT22;6670;51.53087800;7.23266500;2022-07-23T04:08:07;18.00;99.90
13211;DHT22;6670;51.53087800;7.23266500;2022-07-23T04:10:38;18.00;99.90
13211;DHT22;6670;51.53087800;7.23266500;2022-07-23T04:13:07;18.30;99.90
13211;DHT22;6670;51.53087800;7.23266500;2022-07-23T04:15:36;17.90;99.90
13211;DHT22;6670;51.53087800;7.23266500;2022-07-23T04:18:05;18.10;99.90
13211;DHT22;6670;51.53087800;7.23266500;2022-07-23T04:20:50;18.20;99.90
13211;DHT22;6670;51.53087800;7.23266500;2022-07-23T04:23:17;18.50;99.90
13211;DHT22;6670;51.53087800;7.23266500;2022-07-23T04:25:45;18.40;99.90
13211;DHT22;6670;51.53087800;7.23266500;2022-07-23T04:28:12;18.20;99.90
13211;DHT22;6670;51.53087800;7.23266500;2022-07-23T04:30:43;18.10;99.90
13211;DHT22;6670;51.53087800;7.23266500;2022-07-23T04:33:12;18.10;99.90
13211;DHT22;6670;51.53087800;7.23266500;2022-07-23T04:35:40;18.10;99.90
13211;DHT22;6670;51.53087800;7.23266500;2022-07-23T04:38:18;18.50;99.90
13211;DHT22;6670;51.53087800;7.23266500;2022-07-23T04:40:49;18.80;99.90
13211;DHT22;6670;51.53087800;7.23266500;2022-07-23T04:43:18;18.70;99.90
13211;DHT22;6670;51.53087800;7.23266500;2022-07-23T04:45:51;18.70;99.90
13211;DHT22;6670;51.53087800;7.23266500;2022-07-23T04:48:19;18.80;99.90
13211;DHT22;6670;51.53087800;7.23266500;2022-07-23T04:50:50;18.70;99.90
13211;DHT22;6670;51.53087800;7.23266500;2022-07-23T04:53:22;18.50;99.90
13211;DHT22;6670;51.53087800;7.23266500;2022-07-23T04:55:53;18.20;99.90
13211;DHT22;6670;51.53087800;7.23266500;2022-07-23T04:58:21;18.60;99.90
13211;DHT22;6670;51.53087800;7.23266500;2022-07-23T05:00:49;18.40;99.90
13211;DHT22;6670;51.53087800;7.23266500;2022-07-23T05:03:18;18.40;99.90
13211;DHT22;6670;51.53087800;7.23266500;2022-07-23T05:05:47;18.20;99.90
13211;DHT22;6670;51.53087800;7.23266500;2022-07-23T05:08:17;18.20;99.90
13211;DHT22;6670;51.53087800;7.23266500;2022-07-23T05:10:49;18.00;99.90
13211;DHT22;6670;51.53087800;7.23266500;2022-07-23T05:13:18;18.00;99.90
13211;DHT22;6670;51.53087800;7.23266500;2022-07-23T05:15:46;17.90;99.90
13211;DHT22;6670;51.53087800;7.23266500;2022-07-23T05:18:14;18.20;99.90
13211;DHT22;6670;51.53087800;7.23266500;2022-07-23T05:20:43;18.80;99.90
13211;DHT22;6670;51.53087800;7.23266500;2022-07-23T05:23:14;18.70;99.90
13211;DHT22;6670;51.53087800;7.23266500;2022-07-23T05:25:43;19.00;99.90
13211;DHT22;6670;51.53087800;7.23266500;2022-07-23T05:28:26;19.30;99.90
13211;DHT22;6670;51.53087800;7.23266500;2022-07-23T05:30:59;19.40;99.90
13211;DHT22;6670;51.53087800;7.23266500;2022-07-23T05:33:30;19.40;99.90
13211;DHT22;6670;51.53087800;7.23266500;2022-07-23T05:36:01;19.60;99.90
13211;DHT22;6670;51.53087800;7.23266500;2022-07-23T05:38:32;19.50;99.90
13211;DHT22;6670;51.53087800;7.23266500;2022-07-23T05:41:00;19.40;99.90
13211;DHT22;6670;51.53087800;7.23266500;2022-07-23T05:43:33;19.40;99.90
13211;DHT22;6670;51.53087800;7.23266500;2022-07-23T05:46:07;19.70;99.90
13211;DHT22;6670;51.53087800;7.23266500;2022-07-23T05:48:37;19.70;99.90
13211;DHT22;6670;51.53087800;7.23266500;2022-07-23T05:51:13;19.40;99.90
13211;DHT22;6670;51.53087800;7.23266500;2022-07-23T05:53:43;19.40;99.90
13211;DHT22;6670;51.53087800;7.23266500;2022-07-23T05:56:19;19.60;99.90
13211;DHT22;6670;51.53087800;7.23266500;2022-07-23T05:58:49;19.50;99.90
13211;DHT22;6670;51.53087800;7.23266500;2022-07-23T06:01:25;19.70;99.90
13211;DHT22;6670;51.53087800;7.23266500;2022-07-23T06:04:02;19.90;99.90
13211;DHT22;6670;51.53087800;7.23266500;2022-07-23T06:06:36;19.60;99.90
13211;DHT22;6670;51.53087800;7.23266500;2022-07-23T06:09:05;19.30;99.90
13211;DHT22;6670;51.53087800;7.23266500;2022-07-23T06:11:35;19.50;99.90
13211;DHT22;6670;51.53087800;7.23266500;2022-07-23T06:14:10;19.80;99.90
13211;DHT22;6670;51.53087800;7.23266500;2022-07-23T06:16:47;20.00;99.90
13211;DHT22;6670;51.53087800;7.23266500;2022-07-23T06:19:15;20.00;99.90
13211;DHT22;6670;51.53087800;7.23266500;2022-07-23T06:21:44;20.00;99.90
13211;DHT22;6670;51.53087800;7.23266500;2022-07-23T06:24:12;20.10;99.90
13211;DHT22;6670;51.53087800;7.23266500;2022-07-23T06:26:39;20.00;99.90
13211;DHT22;6670;51.53087800;7.23266500;2022-07-23T06:29:07;20.10;99.90
13211;DHT22;6670;51.53087800;7.23266500;2022-07-23T06:31:35;20.30;99.90
13211;DHT22;6670;51.53087800;7.23266500;2022-07-23T06:34:02;20.00;99.90
13211;DHT22;6670;51.53087800;7.23266500;2022-07-23T06:36:30;19.60;99.90
13211;DHT22;6670;51.53087800;7.23266500;2022-07-23T06:39:01;19.40;99.90
13211;DHT22;6670;51.53087800;7.23266500;2022-07-23T06:41:29;19.50;99.90
13211;DHT22;6670;51.53087800;7.23266500;2022-07-23T06:43:58;19.40;99.90
13211;DHT22;6670;51.53087800;7.23266500;2022-07-23T06:46:35;19.40;99.90
13211;DHT22;6670;51.53087800;7.23266500;2022-07-23T06:49:05;19.50;99.90
13211;DHT22;6670;51.53087800;7.23266500;2022-07-23T06:51:32;20.00;99.90
13211;DHT22;6670;51.53087800;7.23266500;2022-07-23T06:54:02;20.30;99.90
13211;DHT22;6670;51.53087800;7.23266500;2022-07-23T06:56:30;20.40;99.90
13211;DHT22;6670;51.53087800;7.23266500;2022-07-23T06:58:59;20.40;99.90
13211;DHT22;6670;51.53087800;7.23266500;2022-07-23T07:01:27;20.60;99.90
13211;DHT22;6670;51.53087800;7.23266500;2022-07-23T07:03:54;20.70;99.90
13211;DHT22;6670;51.53087800;7.23266500;2022-07-23T07:06:22;20.80;99.90
13211;DHT22;6670;51.53087800;7.23266500;2022-07-23T07:08:49;20.90;99.90
13211;DHT22;6670;51.53087800;7.23266500;2022-07-23T07:11:18;20.90;99.90
13211;DHT22;6670;51.53087800;7.23266500;2022-07-23T07:13:46;20.70;99.90
13211;DHT22;6670;51.53087800;7.23266500;2022-07-23T07:16:21;20.60;99.90
13211;DHT22;6670;51.53087800;7.23266500;2022-07-23T07:18:49;20.60;99.90
13211;DHT22;6670;51.53087800;7.23266500;2022-07-23T07:21:16;20.80;99.90
13211;DHT22;6670;51.53087800;7.23266500;2022-07-23T07:23:44;20.90;99.90
13211;DHT22;6670;51.53087800;7.23266500;2022-07-23T07:26:14;21.00;99.90
13211;DHT22;6670;51.53087800;7.23266500;2022-07-23T07:28:43;21.00;99.90
13211;DHT22;6670;51.53087800;7.23266500;2022-07-23T07:31:11;20.90;99.90
13211;DHT22;6670;51.53087800;7.23266500;2022-07-23T07:33:38;20.80;99.90
13211;DHT22;6670;51.53087800;7.23266500;2022-07-23T07:36:06;20.70;99.90
13211;DHT22;6670;51.53087800;7.23266500;2022-07-23T07:38:34;20.70;99.90
13211;DHT22;6670;51.53087800;7.23266500;2022-07-23T07:41:04;20.70;99.90
13211;DHT22;6670;51.53087800;7.23266500;2022-07-23T07:43:31;20.80;99.90
13211;DHT22;6670;51.53087800;7.23266500;2022-07-23T07:46:03;20.70;99.90
13211;DHT22;6670;51.53087800;7.23266500;2022-07-23T07:48:31;20.70;99.90
13211;DHT22;6670;51.53087800;7.23266500;2022-07-23T07:50:59;20.70;99.90
13211;DHT22;6670;51.53087800;7.23266500;2022-07-23T07:53:33;20.60;99.90
13211;DHT22;6670;51.53087800;7.23266500;2022-07-23T07:56:01;20.60;99.90
13211;DHT22;6670;51.53087800;7.23266500;2022-07-23T07:58:30;20.60;99.90
13211;DHT22;6670;51.53087800;7.23266500;2022-07-23T08:00:57;20.70;99.90
13211;DHT22;6670;51.53087800;7.23266500;2022-07-23T08:03:26;20.80;99.90
13211;DHT22;6670;51.53087800;7.23266500;2022-07-23T08:05:54;21.00;99.90
13211;DHT22;6670;51.53087800;7.23266500;2022-07-23T08:08:21;21.10;99.90
13211;DHT22;6670;51.53087800;7.23266500;2022-07-23T08:10:49;21.00;99.90
13211;DHT22;6670;51.53087800;7.23266500;2022-07-23T08:13:18;20.80;99.90
13211;DHT22;6670;51.53087800;7.23266500;2022-07-23T08:15:46;20.90;99.90
13211;DHT22;6670;51.53087800;7.23266500;2022-07-23T08:18:14;21.00;99.90
13211;DHT22;6670;51.53087800;7.23266500;2022-07-23T08:20:43;20.70;99.90
13211;DHT22;6670;51.53087800;7.23266500;2022-07-23T08:23:10;20.70;99.90
13211;DHT22;6670;51.53087800;7.23266500;2022-07-23T08:25:39;20.70;99.90
13211;DHT22;6670;51.53087800;7.23266500;2022-07-23T08:28:08;20.70;99.90
13211;DHT22;6670;51.53087800;7.23266500;2022-07-23T08:30:36;20.80;99.90
13211;DHT22;6670;51.53087800;7.23266500;2022-07-23T08:33:05;20.80;99.90
13211;DHT22;6670;51.53087800;7.23266500;2022-07-23T08:35:35;20.90;99.90
13211;DHT22;6670;51.53087800;7.23266500;2022-07-23T08:38:09;20.60;99.90
13211;DHT22;6670;51.53087800;7.23266500;2022-07-23T08:40:40;20.60;99.90
13211;DHT22;6670;51.53087800;7.23266500;2022-07-23T08:43:09;20.70;99.90
13211;DHT22;6670;51.53087800;7.23266500;2022-07-23T08:45:38;20.60;99.90
13211;DHT22;6670;51.53087800;7.23266500;2022-07-23T08:48:11;20.70;99.90
13211;DHT22;6670;51.53087800;7.23266500;2022-07-23T08:50:42;20.90;99.90
13211;DHT22;6670;51.53087800;7.23266500;2022-07-23T08:53:15;20.70;99.90
13211;DHT22;6670;51.53087800;7.23266500;2022-07-23T08:55:43;20.70;99.90
13211;DHT22;6670;51.53087800;7.23266500;2022-07-23T08:58:12;20.90;99.90
13211;DHT22;6670;51.53087800;7.23266500;2022-07-23T09:00:39;20.70;99.90
13211;DHT22;6670;51.53087800;7.23266500;2022-07-23T09:03:07;20.70;99.90
13211;DHT22;6670;51.53087800;7.23266500;2022-07-23T09:05:34;20.80;99.90
13211;DHT22;6670;51.53087800;7.23266500;2022-07-23T09:08:06;20.80;99.90
13211;DHT22;6670;51.53087800;7.23266500;2022-07-23T09:10:50;20.90;99.90
13211;DHT22;6670;51.53087800;7.23266500;2022-07-23T09:13:26;20.80;99.90
13211;DHT22;6670;51.53087800;7.23266500;2022-07-23T09:15:56;20.90;99.90
13211;DHT22;6670;51.53087800;7.23266500;2022-07-23T09:18:37;21.10;99.90
13211;DHT22;6670;51.53087800;7.23266500;2022-07-23T09:21:18;21.10;99.90
13211;DHT22;6670;51.53087800;7.23266500;2022-07-23T09:23:49;21.20;99.90
13211;DHT22;6670;51.53087800;7.23266500;2022-07-23T09:26:24;21.30;99.90
13211;DHT22;6670;51.53087800;7.23266500;2022-07-23T09:29:01;21.30;99.90
13211;DHT22;6670;51.53087800;7.23266500;2022-07-23T09:31:35;21.30;99.90
13211;DHT22;6670;51.53087800;7.23266500;2022-07-23T09:34:16;21.40;99.90
13211;DHT22;6670;51.53087800;7.23266500;2022-07-23T09:36:44;21.20;99.90
13211;DHT22;6670;51.53087800;7.23266500;2022-07-23T09:39:16;21.30;99.90
13211;DHT22;6670;51.53087800;7.23266500;2022-07-23T09:41:52;21.40;99.90
13211;DHT22;6670;51.53087800;7.23266500;2022-07-23T09:44:20;21.40;99.90
13211;DHT22;6670;51.53087800;7.23266500;2022-07-23T09:46:49;21.40;99.90
13211;DHT22;6670;51.53087800;7.23266500;2022-07-23T09:49:19;21.40;99.90
13211;DHT22;6670;51.53087800;7.23266500;2022-07-23T09:51:51;21.40;99.90
13211;DHT22;6670;51.53087800;7.23266500;2022-07-23T09:54:37;21.50;99.90
13211;DHT22;6670;51.53087800;7.23266500;2022-07-23T09:57:09;21.50;99.90
13211;DHT22;6670;51.53087800;7.23266500;2022-07-23T09:59:41;21.30;99.90
13211;DHT22;6670;51.53087800;7.23266500;2022-07-23T10:02:10;21.30;99.90
13211;DHT22;6670;51.53087800;7.23266500;2022-07-23T10:05:11;21.70;99.90
13211;DHT22;6670;51.53087800;7.23266500;2022-07-23T10:08:11;21.80;99.90
13211;DHT22;6670;51.53087800;7.23266500;2022-07-23T10:10:39;22.00;99.90
13211;DHT22;6670;51.53087800;7.23266500;2022-07-23T10:13:29;21.90;99.90
13211;DHT22;6670;51.53087800;7.23266500;2022-07-23T10:16:14;21.80;99.90
13211;DHT22;6670;51.53087800;7.23266500;2022-07-23T10:18:42;22.00;99.90
13211;DHT22;6670;51.53087800;7.23266500;2022-07-23T10:21:10;22.10;99.90
13211;DHT22;6670;51.53087800;7.23266500;2022-07-23T10:23:42;22.10;99.90
13211;DHT22;6670;51.53087800;7.23266500;2022-07-23T10:26:30;22.20;99.90
13211;DHT22;6670;51.53087800;7.23266500;2022-07-23T10:29:10;22.20;98.60
13211;DHT22;6670;51.53087800;7.23266500;2022-07-23T10:32:03;22.20;99.40
13211;DHT22;6670;51.53087800;7.23266500;2022-07-23T10:34:39;22.20;98.50
13211;DHT22;6670;51.53087800;7.23266500;2022-07-23T10:37:14;22.20;98.20
13211;DHT22;6670;51.53087800;7.23266500;2022-07-23T10:39:44;22.30;97.70
13211;DHT22;6670;51.53087800;7.23266500;2022-07-23T10:42:14;22.50;97.80
13211;DHT22;6670;51.53087800;7.23266500;2022-07-23T10:44:44;22.50;98.90
13211;DHT22;6670;51.53087800;7.23266500;2022-07-23T10:47:21;22.70;98.30
13211;DHT22;6670;51.53087800;7.23266500;2022-07-23T10:50:18;22.90;97.30
13211;DHT22;6670;51.53087800;7.23266500;2022-07-23T10:53:07;22.80;96.60
13211;DHT22;6670;51.53087800;7.23266500;2022-07-23T10:55:47;22.90;96.50
13211;DHT22;6670;51.53087800;7.23266500;2022-07-23T10:58:23;23.00;96.30
13211;DHT22;6670;51.53087800;7.23266500;2022-07-23T11:01:02;23.20;95.00
13211;DHT22;6670;51.53087800;7.23266500;2022-07-23T11:03:35;23.20;96.10
13211;DHT22;6670;51.53087800;7.23266500;2022-07-23T11:06:17;23.40;95.50
13211;DHT22;6670;51.53087800;7.23266500;2022-07-23T11:09:23;23.30;95.90
13211;DHT22;6670;51.53087800;7.23266500;2022-07-23T11:15:00;22.70;97.00
13211;DHT22;6670;51.53087800;7.23266500;2022-07-23T11:17:30;22.80;96.40
13211;DHT22;6670;51.53087800;7.23266500;2022-07-23T11:20:20;23.00;95.40
13211;DHT22;6670;51.53087800;7.23266500;2022-07-23T11:22:50;23.30;95.40
13211;DHT22;6670;51.53087800;7.23266500;2022-07-23T11:25:34;23.70;95.00
13211;DHT22;6670;51.53087800;7.23266500;2022-07-23T11:28:14;23.80;94.60
13211;DHT22;6670;51.53087800;7.23266500;2022-07-23T11:30:43;23.70;93.90
13211;DHT22;6670;51.53087800;7.23266500;2022-07-23T11:33:20;23.80;93.40
13211;DHT22;6670;51.53087800;7.23266500;2022-07-23T11:35:59;24.10;93.60
13211;DHT22;6670;51.53087800;7.23266500;2022-07-23T11:38:31;24.30;92.80
13211;DHT22;6670;51.53087800;7.23266500;2022-07-23T11:40:59;24.30;92.40
13211;DHT22;6670;51.53087800;7.23266500;2022-07-23T11:43:26;24.50;92.10
13211;DHT22;6670;51.53087800;7.23266500;2022-07-23T11:45:57;24.40;91.50
13211;DHT22;6670;51.53087800;7.23266500;2022-07-23T11:48:28;24.10;90.90
13211;DHT22;6670;51.53087800;7.23266500;2022-07-23T11:50:57;24.30;91.20
13211;DHT22;6670;51.53087800;7.23266500;2022-07-23T11:53:26;24.60;90.70
13211;DHT22;6670;51.53087800;7.23266500;2022-07-23T11:56:04;24.50;90.60
13211;DHT22;6670;51.53087800;7.23266500;2022-07-23T11:58:32;24.70;91.30
13211;DHT22;6670;51.53087800;7.23266500;2022-07-23T12:00:59;24.70;90.40
13211;DHT22;6670;51.53087800;7.23266500;2022-07-23T12:03:28;24.50;90.40
13211;DHT22;6670;51.53087800;7.23266500;2022-07-23T12:05:57;24.90;90.50
13211;DHT22;6670;51.53087800;7.23266500;2022-07-23T12:08:24;25.10;90.30
13211;DHT22;6670;51.53087800;7.23266500;2022-07-23T12:10:52;25.30;89.60
13211;DHT22;6670;51.53087800;7.23266500;2022-07-23T12:13:20;25.40;88.30
13211;DHT22;6670;51.53087800;7.23266500;2022-07-23T12:15:50;25.00;89.50
13211;DHT22;6670;51.53087800;7.23266500;2022-07-23T12:18:33;25.10;89.70
13211;DHT22;6670;51.53087800;7.23266500;2022-07-23T12:21:04;25.30;89.10
13211;DHT22;6670;51.53087800;7.23266500;2022-07-23T12:23:33;25.20;90.00
13211;DHT22;6670;51.53087800;7.23266500;2022-07-23T12:26:02;25.60;89.20
13211;DHT22;6670;51.53087800;7.23266500;2022-07-23T12:28:31;25.80;86.20
13211;DHT22;6670;51.53087800;7.23266500;2022-07-23T12:31:00;25.90;87.90
13211;DHT22;6670;51.53087800;7.23266500;2022-07-23T12:33:29;25.90;85.40
13211;DHT22;6670;51.53087800;7.23266500;2022-07-23T12:36:01;25.90;83.40
13211;DHT22;6670;51.53087800;7.23266500;2022-07-23T12:38:38;26.20;82.90
13211;DHT22;6670;51.53087800;7.23266500;2022-07-23T12:41:06;25.60;82.80
13211;DHT22;6670;51.53087800;7.23266500;2022-07-23T12:43:35;25.80;82.40
13211;DHT22;6670;51.53087800;7.23266500;2022-07-23T12:46:05;25.20;83.20
13211;DHT22;6670;51.53087800;7.23266500;2022-07-23T12:48:33;25.00;84.80
13211;DHT22;6670;51.53087800;7.23266500;2022-07-23T12:51:04;24.70;85.00
13211;DHT22;6670;51.53087800;7.23266500;2022-07-23T12:53:38;25.00;85.90
13211;DHT22;6670;51.53087800;7.23266500;2022-07-23T12:56:08;25.20;83.70
13211;DHT22;6670;51.53087800;7.23266500;2022-07-23T12:58:44;25.30;82.90
13211;DHT22;6670;51.53087800;7.23266500;2022-07-23T13:01:23;25.70;82.80
13211;DHT22;6670;51.53087800;7.23266500;2022-07-23T13:04:02;25.80;80.30
13211;DHT22;6670;51.53087800;7.23266500;2022-07-23T13:06:33;25.60;81.40
13211;DHT22;6670;51.53087800;7.23266500;2022-07-23T13:09:02;25.90;80.30
13211;DHT22;6670;51.53087800;7.23266500;2022-07-23T13:11:31;26.10;80.50
13211;DHT22;6670;51.53087800;7.23266500;2022-07-23T13:13:58;26.30;79.00
13211;DHT22;6670;51.53087800;7.23266500;2022-07-23T13:16:27;26.00;79.40
13211;DHT22;6670;51.53087800;7.23266500;2022-07-23T13:18:54;25.60;79.70
13211;DHT22;6670;51.53087800;7.23266500;2022-07-23T13:21:22;25.90;80.00
13211;DHT22;6670;51.53087800;7.23266500;2022-07-23T13:23:51;25.80;78.30
13211;DHT22;6670;51.53087800;7.23266500;2022-07-23T13:26:19;25.90;76.50
13211;DHT22;6670;51.53087800;7.23266500;2022-07-23T13:28:47;26.10;77.60
13211;DHT22;6670;51.53087800;7.23266500;2022-07-23T13:31:17;26.30;77.80
13211;DHT22;6670;51.53087800;7.23266500;2022-07-23T13:33:45;26.70;76.60
13211;DHT22;6670;51.53087800;7.23266500;2022-07-23T13:36:13;27.10;75.20
13211;DHT22;6670;51.53087800;7.23266500;2022-07-23T13:38:41;26.80;75.20
13211;DHT22;6670;51.53087800;7.23266500;2022-07-23T13:41:10;26.90;74.00
13211;DHT22;6670;51.53087800;7.23266500;2022-07-23T13:43:38;27.20;73.20
13211;DHT22;6670;51.53087800;7.23266500;2022-07-23T13:46:05;27.40;72.80
13211;DHT22;6670;51.53087800;7.23266500;2022-07-23T13:48:33;27.70;70.20
13211;DHT22;6670;51.53087800;7.23266500;2022-07-23T13:51:00;27.60;69.90
13211;DHT22;6670;51.53087800;7.23266500;2022-07-23T13:53:33;27.20;70.90
13211;DHT22;6670;51.53087800;7.23266500;2022-07-23T13:56:01;26.90;69.30